createdAt,value
2023-03-17T00:01:25.194Z,56.38
2023-03-17T00:05:31.258Z,56.13
2023-03-17T00:09:34.073Z,56.45
2023-03-17T00:13:35.515Z,56.60
2023-03-17T00:17:37.054Z,55.97
2023-03-17T00:21:38.626Z,56.49
2023-03-17T00:25:41.453Z,56.30
2023-03-17T00:29:42.872Z,56.63
2023-03-17T00:33:45.444Z,56.47
2023-03-17T00:37:46.911Z,57.31
2023-03-17T00:41:49.655Z,56.28
2023-03-17T00:45:51.173Z,57.14
2023-03-17T00:49:52.710Z,56.48
2023-03-17T00:53:54.124Z,57.22
2023-03-17T00:57:56.907Z,56.78
2023-03-17T01:01:58.490Z,56.65
2023-03-17T01:06:02.661Z,56.96
2023-03-17T01:10:12.881Z,56.65
2023-03-17T01:14:16.361Z,57.11
2023-03-17T01:18:20.795Z,57.09
2023-03-17T01:22:22.239Z,57.30
2023-03-17T01:26:25.975Z,57.02
2023-03-17T01:30:31.668Z,57.55
2023-03-17T01:34:33.307Z,56.93
2023-03-17T01:38:34.725Z,57.27
2023-03-17T01:42:36.414Z,57.58
2023-03-17T01:46:39.181Z,56.81
2023-03-17T01:50:41.021Z,57.06
2023-03-17T01:54:45.392Z,56.53
2023-03-17T01:58:49.713Z,56.45
2023-03-17T02:02:54.390Z,56.35
2023-03-17T02:06:58.505Z,56.43
2023-03-17T02:11:00.714Z,56.15
2023-03-17T02:15:02.534Z,56.30
2023-03-17T02:19:05.313Z,55.17
2023-03-17T02:23:08.105Z,55.46
2023-03-17T02:27:13.485Z,55.40
2023-03-17T02:31:15.400Z,54.72
2023-03-17T02:35:18.112Z,53.98
2023-03-17T02:39:20.864Z,54.93
2023-03-17T02:43:22.306Z,55.21
2023-03-17T02:47:23.761Z,54.14
2023-03-17T02:51:25.194Z,54.68
2023-03-17T02:55:27.971Z,54.24
2023-03-17T02:59:29.759Z,54.57
2023-03-17T03:03:31.267Z,53.91
2023-03-17T03:07:33.309Z,53.25
2023-03-17T03:11:36.093Z,53.40
2023-03-17T03:15:37.578Z,54.46
2023-03-17T03:19:39.231Z,54.13
2023-03-17T03:23:40.803Z,54.14
2023-03-17T03:27:43.576Z,53.43
2023-03-17T03:31:45.021Z,54.05
2023-03-17T03:35:46.575Z,53.16
2023-03-17T03:39:48.033Z,53.52
2023-03-17T03:43:51.975Z,53.60
2023-03-17T03:47:53.403Z,53.80
2023-03-17T03:51:54.823Z,54.31
2023-03-17T03:55:56.441Z,54.19
2023-03-17T03:59:59.233Z,54.37
2023-03-17T04:04:00.901Z,53.90
2023-03-17T04:08:02.340Z,54.24
2023-03-17T04:12:04.351Z,53.43
2023-03-17T04:16:07.764Z,54.29
2023-03-17T04:20:11.010Z,55.02
2023-03-17T04:24:12.482Z,54.46
2023-03-17T04:28:13.894Z,54.22
2023-03-17T04:32:16.717Z,54.13
2023-03-17T04:36:19.238Z,55.01
2023-03-17T04:40:20.985Z,55.11
2023-03-17T04:44:22.404Z,54.48
2023-03-17T04:48:25.180Z,55.22
2023-03-17T04:52:26.820Z,55.34
2023-03-17T04:56:31.145Z,55.31
2023-03-17T05:00:33.338Z,55.39
2023-03-17T05:04:36.109Z,54.96
2023-03-17T05:08:37.503Z,55.35
2023-03-17T05:12:38.939Z,55.29
2023-03-17T05:16:40.390Z,55.54
2023-03-17T05:20:43.188Z,55.60
2023-03-17T05:24:44.612Z,56.45
2023-03-17T05:28:46.088Z,55.43
2023-03-17T05:32:47.566Z,56.47
2023-03-17T05:36:50.449Z,55.95
2023-03-17T05:40:51.972Z,55.51
2023-03-17T05:44:53.388Z,55.44
2023-03-17T05:48:54.801Z,55.70
2023-03-17T05:52:57.591Z,55.82
2023-03-17T05:56:59.000Z,56.22
2023-03-17T06:01:00.548Z,56.27
2023-03-17T06:05:02.024Z,54.60
2023-03-17T06:09:04.786Z,55.93
2023-03-17T06:13:06.208Z,55.43
2023-03-17T06:17:07.983Z,55.82
2023-03-17T06:21:09.848Z,56.12
2023-03-17T06:25:13.167Z,55.68
2023-03-17T06:29:14.575Z,55.65
2023-03-17T06:33:16.064Z,55.85
2023-03-17T06:37:17.684Z,55.92
2023-03-17T06:41:20.464Z,55.54
2023-03-17T06:45:21.907Z,55.44
2023-03-17T06:49:23.334Z,54.54
2023-03-17T06:53:24.871Z,54.92
2023-03-17T06:57:27.979Z,54.82
2023-03-17T07:01:29.440Z,53.56
2023-03-17T07:05:31.221Z,53.94
2023-03-17T07:09:33.865Z,53.21
2023-03-17T07:13:36.624Z,53.08
2023-03-17T07:17:38.281Z,53.00
2023-03-17T07:21:39.711Z,52.82
2023-03-17T07:25:41.171Z,51.67
2023-03-17T07:29:43.999Z,52.14
2023-03-17T07:33:45.454Z,53.12
2023-03-17T07:37:46.906Z,51.73
2023-03-17T07:41:48.349Z,51.58
2023-03-17T07:45:51.181Z,52.61
2023-03-17T07:49:52.640Z,52.66
2023-03-17T07:53:54.339Z,52.43
2023-03-17T07:57:56.093Z,52.88
2023-03-17T08:01:59.285Z,53.15
2023-03-17T08:06:00.991Z,51.99
2023-03-17T08:10:02.445Z,51.28
2023-03-17T08:14:04.168Z,51.68
2023-03-17T08:18:07.102Z,51.82
2023-03-17T08:22:08.554Z,49.38
2023-03-17T08:26:10.055Z,49.44
2023-03-17T08:30:12.725Z,48.53
2023-03-17T08:34:15.592Z,48.44
2023-03-17T08:38:17.037Z,47.94
2023-03-17T08:42:18.484Z,47.47
2023-03-17T08:46:22.867Z,48.80
2023-03-17T08:50:26.143Z,46.92
2023-03-17T08:54:27.585Z,46.69
2023-03-17T08:58:29.169Z,47.25
2023-03-17T09:02:30.610Z,48.14
2023-03-17T09:06:33.413Z,46.62
2023-03-17T09:10:35.079Z,46.93
2023-03-17T09:14:43.524Z,46.99
2023-03-17T09:18:46.907Z,46.35
2023-03-17T09:22:50.021Z,46.44
2023-03-17T09:26:51.427Z,45.39
2023-03-17T09:30:58.143Z,45.70
2023-03-17T09:34:59.593Z,44.79
2023-03-17T09:39:02.385Z,43.44
2023-03-17T09:43:11.908Z,44.86
2023-03-17T09:47:30.110Z,45.45
2023-03-17T09:51:32.203Z,43.62
2023-03-17T09:55:36.795Z,42.34
2023-03-17T09:59:41.949Z,42.90
2023-03-17T10:03:43.445Z,42.41
2023-03-17T10:07:49.900Z,42.92
2023-03-17T10:12:02.138Z,41.61
2023-03-17T10:16:07.782Z,40.78
2023-03-17T10:20:15.917Z,42.24
2023-03-17T10:24:18.957Z,41.04
2023-03-17T10:28:27.641Z,41.04
2023-03-17T10:32:31.057Z,40.93
2023-03-17T10:36:34.872Z,41.46
2023-03-17T10:40:36.327Z,40.64
2023-03-17T10:44:46.648Z,40.98
2023-03-17T10:48:53.170Z,39.38
2023-03-17T10:52:59.119Z,39.92
2023-03-17T10:57:02.977Z,39.24
2023-03-17T11:01:15.170Z,38.80
2023-03-17T11:05:22.254Z,39.15
2023-03-17T11:09:24.614Z,40.23
2023-03-17T11:13:29.668Z,41.52
2023-03-17T11:17:39.343Z,40.13
2023-03-17T11:21:50.920Z,38.68
2023-03-17T11:26:02.445Z,39.68
2023-03-17T11:30:19.773Z,40.40
2023-03-17T11:34:35.844Z,39.01
2023-03-17T11:38:43.798Z,38.47
2023-03-17T11:42:54.754Z,38.83
2023-03-17T11:47:06.057Z,38.24
2023-03-17T11:51:15.960Z,38.33
2023-03-17T11:55:22.822Z,36.76
2023-03-17T11:59:29.870Z,37.72
2023-03-17T12:03:40.097Z,38.12
2023-03-17T12:07:47.414Z,38.94
2023-03-17T12:11:50.706Z,38.04
2023-03-17T12:15:57.313Z,38.57
2023-03-17T12:20:07.191Z,37.83
2023-03-17T12:24:15.166Z,37.89
2023-03-17T12:28:21.461Z,36.73
2023-03-17T12:32:28.329Z,37.35
2023-03-17T12:36:29.959Z,36.50
2023-03-17T12:40:37.415Z,36.23
2023-03-17T12:44:58.225Z,36.40
2023-03-17T12:49:27.034Z,37.98
2023-03-17T12:53:30.828Z,38.36
2023-03-17T12:57:39.775Z,38.17
2023-03-17T13:01:44.407Z,37.69
2023-03-17T13:05:47.550Z,37.46
2023-03-17T13:10:09.443Z,37.13
2023-03-17T13:14:24.735Z,37.47
2023-03-17T13:18:50.162Z,37.10
2023-03-17T13:23:12.867Z,37.80
2023-03-17T13:27:34.996Z,37.41
2023-03-17T13:31:37.873Z,37.48
2023-03-17T13:35:43.060Z,36.31
2023-03-17T13:40:09.362Z,36.70
2023-03-17T13:44:38.212Z,37.01
2023-03-17T13:48:41.303Z,36.12
2023-03-17T13:52:48.434Z,36.99
2023-03-17T13:56:50.635Z,36.55
2023-03-17T14:00:59.600Z,38.05
2023-03-17T14:05:05.301Z,38.34
2023-03-17T14:09:16.660Z,39.28
2023-03-17T14:13:22.919Z,39.17
2023-03-17T14:17:27.944Z,39.21
2023-03-17T14:21:32.851Z,39.56
2023-03-17T14:25:36.480Z,39.09
2023-03-17T14:29:38.047Z,38.72
2023-03-17T14:33:41.235Z,39.08
2023-03-17T14:37:44.277Z,38.68
2023-03-17T14:41:45.717Z,40.16
2023-03-17T14:45:50.089Z,40.31
2023-03-17T14:49:53.775Z,39.90
2023-03-17T14:54:00.470Z,39.55
2023-03-17T14:58:08.328Z,39.94
2023-03-17T15:02:20.830Z,39.68
2023-03-17T15:06:48.981Z,40.02
2023-03-17T15:11:21.639Z,39.81
2023-03-17T15:15:43.399Z,39.69
2023-03-17T15:20:12.282Z,41.25
2023-03-17T15:24:38.883Z,41.27
2023-03-17T15:29:01.995Z,40.99
2023-03-17T15:33:35.680Z,42.08
2023-03-17T15:37:57.771Z,41.76
2023-03-17T15:42:23.309Z,41.96
2023-03-17T15:46:46.595Z,42.06
2023-03-17T15:51:10.531Z,42.44
2023-03-17T15:55:32.284Z,42.80
2023-03-17T15:59:54.087Z,42.56
2023-03-17T16:04:17.302Z,42.43
2023-03-17T16:08:39.120Z,42.23
2023-03-17T16:13:00.891Z,43.26
2023-03-17T16:17:26.888Z,43.78
2023-03-17T16:21:51.146Z,43.73
2023-03-17T16:26:16.069Z,43.64
2023-03-17T16:30:39.920Z,43.88
2023-03-17T16:35:01.683Z,43.79
2023-03-17T16:39:24.808Z,43.80
2023-03-17T16:43:50.278Z,43.86
2023-03-17T16:48:14.176Z,45.17
2023-03-17T16:52:35.965Z,45.87
2023-03-17T16:56:59.367Z,45.31
2023-03-17T17:01:23.638Z,46.53
2023-03-17T17:05:45.847Z,46.14
2023-03-17T17:10:08.197Z,46.69
2023-03-17T17:14:31.286Z,47.42
2023-03-17T17:18:53.253Z,46.94
2023-03-17T17:23:17.930Z,47.46
2023-03-17T17:27:42.002Z,47.26
2023-03-17T17:32:05.790Z,47.08
2023-03-17T17:36:27.560Z,48.90
2023-03-17T17:40:50.039Z,49.58
2023-03-17T17:45:12.785Z,50.38
2023-03-17T17:49:35.898Z,49.74
2023-03-17T17:53:57.662Z,50.66
2023-03-17T17:58:21.732Z,49.29
2023-03-17T18:02:44.392Z,50.17
2023-03-17T18:07:07.757Z,49.71
2023-03-17T18:11:29.534Z,50.27
2023-03-17T18:15:51.471Z,49.31
2023-03-17T18:20:16.035Z,50.11
2023-03-17T18:24:39.116Z,50.59
2023-03-17T18:29:01.420Z,51.39
2023-03-17T18:33:23.224Z,50.70
2023-03-17T18:37:45.123Z,52.11
2023-03-17T18:42:08.954Z,51.11
2023-03-17T18:46:30.615Z,50.77
2023-03-17T18:50:52.395Z,50.61
2023-03-17T18:55:14.995Z,51.18
2023-03-17T18:59:38.177Z,51.30
2023-03-17T19:04:00.064Z,51.60
2023-03-17T19:08:22.520Z,50.57
2023-03-17T19:12:45.501Z,50.70
2023-03-17T19:17:08.759Z,50.22
2023-03-17T19:21:30.578Z,51.01
2023-03-17T19:25:52.641Z,50.50
2023-03-17T19:30:15.094Z,50.59
2023-03-17T19:34:38.302Z,50.93
2023-03-17T19:39:00.185Z,51.16
2023-03-17T19:43:38.975Z,49.20
2023-03-17T19:48:01.725Z,49.89
2023-03-17T19:52:24.871Z,49.25
2023-03-17T19:56:46.620Z,49.85
2023-03-17T20:01:08.489Z,50.09
2023-03-17T20:05:30.324Z,49.00
2023-03-17T20:09:53.483Z,48.87
2023-03-17T20:14:15.247Z,49.32
2023-03-17T20:18:37.006Z,49.35
2023-03-17T20:22:58.778Z,49.59
2023-03-17T20:27:21.879Z,49.09
2023-03-17T20:31:43.681Z,49.80
2023-03-17T20:36:06.489Z,48.21
2023-03-17T20:40:28.552Z,48.35
2023-03-17T20:44:51.822Z,48.13
2023-03-17T20:49:13.603Z,47.74
2023-03-17T20:53:35.372Z,47.71
2023-03-17T20:57:57.128Z,47.72
2023-03-17T21:02:20.276Z,48.40
2023-03-17T21:06:42.352Z,47.84
2023-03-17T21:11:04.646Z,47.46
2023-03-17T21:15:26.927Z,47.09
2023-03-17T21:19:50.128Z,47.67
2023-03-17T21:24:23.662Z,46.79
2023-03-17T21:28:45.562Z,46.28
2023-03-17T21:33:07.340Z,45.95
2023-03-17T21:37:30.503Z,45.70
2023-03-17T21:41:52.584Z,45.96
2023-03-17T21:46:14.469Z,45.89
2023-03-17T21:50:36.374Z,46.58
2023-03-17T21:54:59.499Z,45.88
2023-03-17T21:59:21.247Z,45.92
2023-03-17T22:03:43.675Z,46.00
2023-03-17T22:08:06.042Z,45.89
2023-03-17T22:12:29.133Z,46.23
2023-03-17T22:16:50.969Z,46.18
2023-03-17T22:21:12.876Z,46.65
2023-03-17T22:25:34.670Z,45.71
2023-03-17T22:29:57.794Z,46.11
2023-03-17T22:34:19.566Z,45.67
2023-03-17T22:38:41.823Z,45.57
2023-03-17T22:43:03.636Z,45.70
2023-03-17T22:47:27.068Z,45.75
2023-03-17T22:51:50.004Z,45.68
2023-03-17T22:56:13.234Z,45.73
2023-03-17T23:00:35.037Z,45.78
2023-03-17T23:04:58.158Z,45.53
2023-03-17T23:09:20.463Z,45.96
2023-03-17T23:13:42.231Z,45.74
2023-03-17T23:18:04.556Z,46.74
2023-03-17T23:22:27.759Z,46.25
2023-03-17T23:26:49.550Z,46.43
2023-03-17T23:31:11.353Z,44.96
2023-03-17T23:35:33.265Z,46.30
2023-03-17T23:39:56.564Z,46.62
2023-03-17T23:44:18.335Z,46.79
2023-03-17T23:48:42.527Z,45.64
2023-03-17T23:53:04.429Z,46.61
2023-03-17T23:57:27.593Z,46.76
